sensor_id;sensor_type;location;lat;lon;timestamp;temperature;humidity
8105;DHT22;4095;48.942;9.104;2023-09-19T00:01:33;20.10;99.90
8105;DHT22;4095;48.942;9.104;2023-09-19T00:03:59;20.10;99.90
8105;DHT22;4095;48.942;9.104;2023-09-19T00:06:28;20.10;99.90
8105;DHT22;4095;48.942;9.104;2023-09-19T00:08:57;20.20;99.90
8105;DHT22;4095;48.942;9.104;2023-09-19T00:11:24;20.10;99.90
8105;DHT22;4095;48.942;9.104;2023-09-19T00:13:51;20.20;99.90
8105;DHT22;4095;48.942;9.104;2023-09-19T00:16:17;20.20;99.90
8105;DHT22;4095;48.942;9.104;2023-09-19T00:18:45;20.10;99.90
8105;DHT22;4095;48.942;9.104;2023-09-19T00:21:10;20.10;99.90
8105;DHT22;4095;48.942;9.104;2023-09-19T00:23:37;20.10;99.90
8105;DHT22;4095;48.942;9.104;2023-09-19T00:26:03;20.10;99.90
8105;DHT22;4095;48.942;9.104;2023-09-19T00:28:29;20.10;99.90
8105;DHT22;4095;48.942;9.104;2023-09-19T00:30:55;20.00;99.90
8105;DHT22;4095;48.942;9.104;2023-09-19T00:33:21;20.10;99.90
8105;DHT22;4095;48.942;9.104;2023-09-19T00:35:54;20.10;99.90
8105;DHT22;4095;48.942;9.104;2023-09-19T00:38:21;20.10;99.90
8105;DHT22;4095;48.942;9.104;2023-09-19T00:40:49;20.10;99.90
8105;DHT22;4095;48.942;9.104;2023-09-19T00:43:16;20.00;99.90
8105;DHT22;4095;48.942;9.104;2023-09-19T00:45:43;20.00;99.90
8105;DHT22;4095;48.942;9.104;2023-09-19T00:48:10;20.00;99.90
8105;DHT22;4095;48.942;9.104;2023-09-19T00:50:37;20.00;99.90
8105;DHT22;4095;48.942;9.104;2023-09-19T00:53:07;20.00;99.90
8105;DHT22;4095;48.942;9.104;2023-09-19T00:55:34;20.00;99.90
8105;DHT22;4095;48.942;9.104;2023-09-19T00:58:00;20.00;99.90
8105;DHT22;4095;48.942;9.104;2023-09-19T01:00:26;20.00;99.90
8105;DHT22;4095;48.942;9.104;2023-09-19T01:02:52;20.00;99.90
8105;DHT22;4095;48.942;9.104;2023-09-19T01:05:18;19.90;99.90
8105;DHT22;4095;48.942;9.104;2023-09-19T01:07:44;19.90;99.90
8105;DHT22;4095;48.942;9.104;2023-09-19T01:10:12;19.80;99.90
8105;DHT22;4095;48.942;9.104;2023-09-19T01:13:05;19.90;99.90
8105;DHT22;4095;48.942;9.104;2023-09-19T01:15:38;19.90;99.90
8105;DHT22;4095;48.942;9.104;2023-09-19T01:32:03;19.90;99.90
8105;DHT22;4095;48.942;9.104;2023-09-19T01:34:46;19.90;99.90
8105;DHT22;4095;48.942;9.104;2023-09-19T01:37:13;19.90;99.90
8105;DHT22;4095;48.942;9.104;2023-09-19T01:39:40;19.90;99.90
8105;DHT22;4095;48.942;9.104;2023-09-19T01:45:13;19.90;99.90
8105;DHT22;4095;48.942;9.104;2023-09-19T01:47:48;19.90;99.90
8105;DHT22;4095;48.942;9.104;2023-09-19T01:50:31;19.90;99.90
8105;DHT22;4095;48.942;9.104;2023-09-19T01:53:04;19.80;99.90
8105;DHT22;4095;48.942;9.104;2023-09-19T01:55:32;19.80;99.90
8105;DHT22;4095;48.942;9.104;2023-09-19T01:58:07;19.80;99.90
8105;DHT22;4095;48.942;9.104;2023-09-19T02:00:37;19.80;99.90
8105;DHT22;4095;48.942;9.104;2023-09-19T02:03:05;19.80;99.90
8105;DHT22;4095;48.942;9.104;2023-09-19T02:05:31;19.80;99.90
8105;DHT22;4095;48.942;9.104;2023-09-19T02:07:58;19.80;99.90
8105;DHT22;4095;48.942;9.104;2023-09-19T02:10:24;19.80;99.90
8105;DHT22;4095;48.942;9.104;2023-09-19T02:12:50;19.70;99.90
8105;DHT22;4095;48.942;9.104;2023-09-19T02:15:16;19.60;99.90
8105;DHT22;4095;48.942;9.104;2023-09-19T02:17:43;19.60;99.90
8105;DHT22;4095;48.942;9.104;2023-09-19T02:20:10;19.60;99.90
8105;DHT22;4095;48.942;9.104;2023-09-19T02:22:41;19.60;99.90
8105;DHT22;4095;48.942;9.104;2023-09-19T02:25:07;19.60;99.90
8105;DHT22;4095;48.942;9.104;2023-09-19T02:27:34;19.50;99.90
8105;DHT22;4095;48.942;9.104;2023-09-19T02:29:59;19.50;99.90
8105;DHT22;4095;48.942;9.104;2023-09-19T02:32:27;19.50;99.90
8105;DHT22;4095;48.942;9.104;2023-09-19T02:34:55;19.40;99.90
8105;DHT22;4095;48.942;9.104;2023-09-19T02:37:21;19.40;99.90
8105;DHT22;4095;48.942;9.104;2023-09-19T02:39:47;19.40;99.90
8105;DHT22;4095;48.942;9.104;2023-09-19T02:42:12;19.40;99.90
8105;DHT22;4095;48.942;9.104;2023-09-19T02:44:38;19.40;99.90
8105;DHT22;4095;48.942;9.104;2023-09-19T02:47:05;19.30;99.90
8105;DHT22;4095;48.942;9.104;2023-09-19T02:49:31;19.40;99.90
8105;DHT22;4095;48.942;9.104;2023-09-19T02:51:56;19.40;99.90
8105;DHT22;4095;48.942;9.104;2023-09-19T02:54:24;19.40;99.90
8105;DHT22;4095;48.942;9.104;2023-09-19T02:56:49;19.40;99.90
8105;DHT22;4095;48.942;9.104;2023-09-19T02:59:15;19.40;99.90
8105;DHT22;4095;48.942;9.104;2023-09-19T03:01:43;19.40;99.90
8105;DHT22;4095;48.942;9.104;2023-09-19T03:04:09;19.40;99.90
8105;DHT22;4095;48.942;9.104;2023-09-19T03:06:37;19.40;99.90
8105;DHT22;4095;48.942;9.104;2023-09-19T03:09:04;19.40;99.90
8105;DHT22;4095;48.942;9.104;2023-09-19T03:11:33;19.40;99.90
8105;DHT22;4095;48.942;9.104;2023-09-19T03:13:58;19.40;99.90
8105;DHT22;4095;48.942;9.104;2023-09-19T03:16:24;19.40;99.90
8105;DHT22;4095;48.942;9.104;2023-09-19T03:18:51;19.40;99.90
8105;DHT22;4095;48.942;9.104;2023-09-19T03:21:17;19.50;99.90
8105;DHT22;4095;48.942;9.104;2023-09-19T03:23:43;19.50;99.90
8105;DHT22;4095;48.942;9.104;2023-09-19T03:26:11;19.50;99.90
8105;DHT22;4095;48.942;9.104;2023-09-19T03:28:37;19.50;99.90
8105;DHT22;4095;48.942;9.104;2023-09-19T03:31:04;19.50;99.90
8105;DHT22;4095;48.942;9.104;2023-09-19T03:33:31;19.50;99.90
8105;DHT22;4095;48.942;9.104;2023-09-19T03:35:58;19.40;99.90
8105;DHT22;4095;48.942;9.104;2023-09-19T03:38:25;19.40;99.90
8105;DHT22;4095;48.942;9.104;2023-09-19T03:40:51;19.40;99.90
8105;DHT22;4095;48.942;9.104;2023-09-19T03:43:16;19.40;99.90
8105;DHT22;4095;48.942;9.104;2023-09-19T03:45:42;19.40;99.90
8105;DHT22;4095;48.942;9.104;2023-09-19T03:48:09;19.50;99.90
8105;DHT22;4095;48.942;9.104;2023-09-19T03:50:35;19.40;99.90
8105;DHT22;4095;48.942;9.104;2023-09-19T03:53:01;19.50;99.90
8105;DHT22;4095;48.942;9.104;2023-09-19T03:55:27;19.50;99.90
8105;DHT22;4095;48.942;9.104;2023-09-19T03:57:52;19.50;99.90
8105;DHT22;4095;48.942;9.104;2023-09-19T04:00:18;19.50;99.90
8105;DHT22;4095;48.942;9.104;2023-09-19T04:02:47;19.50;99.90
8105;DHT22;4095;48.942;9.104;2023-09-19T04:05:13;19.50;99.90
8105;DHT22;4095;48.942;9.104;2023-09-19T04:07:38;19.50;99.90
8105;DHT22;4095;48.942;9.104;2023-09-19T04:10:04;19.50;99.90
8105;DHT22;4095;48.942;9.104;2023-09-19T04:12:31;19.50;99.90
8105;DHT22;4095;48.942;9.104;2023-09-19T04:14:57;19.40;99.90
8105;DHT22;4095;48.942;9.104;2023-09-19T04:17:23;19.30;99.90
8105;DHT22;4095;48.942;9.104;2023-09-19T04:19:49;19.10;99.90
8105;DHT22;4095;48.942;9.104;2023-09-19T04:22:14;19.00;99.90
8105;DHT22;4095;48.942;9.104;2023-09-19T04:24:40;19.00;99.90
8105;DHT22;4095;48.942;9.104;2023-09-19T04:27:05;19.00;99.90
8105;DHT22;4095;48.942;9.104;2023-09-19T04:29:32;19.00;99.90
8105;DHT22;4095;48.942;9.104;2023-09-19T04:31:58;19.00;99.90
8105;DHT22;4095;48.942;9.104;2023-09-19T04:34:23;19.00;99.90
8105;DHT22;4095;48.942;9.104;2023-09-19T04:36:49;19.00;99.90
8105;DHT22;4095;48.942;9.104;2023-09-19T04:39:15;19.00;99.90
8105;DHT22;4095;48.942;9.104;2023-09-19T04:41:42;19.00;99.90
8105;DHT22;4095;48.942;9.104;2023-09-19T04:44:07;19.10;99.90
8105;DHT22;4095;48.942;9.104;2023-09-19T04:46:34;19.00;99.90
8105;DHT22;4095;48.942;9.104;2023-09-19T04:49:00;19.00;99.90
8105;DHT22;4095;48.942;9.104;2023-09-19T04:51:26;19.00;99.90
8105;DHT22;4095;48.942;9.104;2023-09-19T04:53:54;19.00;99.90
8105;DHT22;4095;48.942;9.104;2023-09-19T04:56:20;19.00;99.90
8105;DHT22;4095;48.942;9.104;2023-09-19T04:58:46;19.10;99.90
8105;DHT22;4095;48.942;9.104;2023-09-19T05:01:12;19.10;99.90
8105;DHT22;4095;48.942;9.104;2023-09-19T05:03:39;19.10;99.90
8105;DHT22;4095;48.942;9.104;2023-09-19T05:06:05;19.10;99.90
8105;DHT22;4095;48.942;9.104;2023-09-19T05:08:30;19.10;99.90
8105;DHT22;4095;48.942;9.104;2023-09-19T05:10:56;19.10;99.90
8105;DHT22;4095;48.942;9.104;2023-09-19T05:13:22;19.10;99.90
8105;DHT22;4095;48.942;9.104;2023-09-19T05:15:49;19.00;99.90
8105;DHT22;4095;48.942;9.104;2023-09-19T05:18:15;19.00;99.90
8105;DHT22;4095;48.942;9.104;2023-09-19T05:20:41;18.90;99.90
8105;DHT22;4095;48.942;9.104;2023-09-19T05:23:07;18.90;99.90
8105;DHT22;4095;48.942;9.104;2023-09-19T05:25:38;18.90;99.90
8105;DHT22;4095;48.942;9.104;2023-09-19T05:28:11;18.90;99.90
8105;DHT22;4095;48.942;9.104;2023-09-19T05:30:40;19.00;99.90
8105;DHT22;4095;48.942;9.104;2023-09-19T05:33:08;18.80;99.90
8105;DHT22;4095;48.942;9.104;2023-09-19T05:35:33;18.80;99.90
8105;DHT22;4095;48.942;9.104;2023-09-19T05:37:59;18.80;99.90
8105;DHT22;4095;48.942;9.104;2023-09-19T05:40:25;18.80;99.90
8105;DHT22;4095;48.942;9.104;2023-09-19T05:42:51;18.80;99.90
8105;DHT22;4095;48.942;9.104;2023-09-19T05:45:17;18.80;99.90
8105;DHT22;4095;48.942;9.104;2023-09-19T05:47:48;18.80;99.90
8105;DHT22;4095;48.942;9.104;2023-09-19T05:50:14;18.90;99.90
8105;DHT22;4095;48.942;9.104;2023-09-19T05:52:41;18.90;99.90
8105;DHT22;4095;48.942;9.104;2023-09-19T05:55:08;18.90;99.90
8105;DHT22;4095;48.942;9.104;2023-09-19T05:57:37;18.90;99.90
8105;DHT22;4095;48.942;9.104;2023-09-19T06:00:08;18.90;99.90
8105;DHT22;4095;48.942;9.104;2023-09-19T06:02:36;18.90;99.90
8105;DHT22;4095;48.942;9.104;2023-09-19T06:05:06;19.00;99.90
8105;DHT22;4095;48.942;9.104;2023-09-19T06:07:36;18.90;99.90
8105;DHT22;4095;48.942;9.104;2023-09-19T06:10:05;18.90;99.90
8105;DHT22;4095;48.942;9.104;2023-09-19T06:12:32;19.00;99.90
8105;DHT22;4095;48.942;9.104;2023-09-19T06:15:03;19.00;99.90
8105;DHT22;4095;48.942;9.104;2023-09-19T06:17:31;19.00;99.90
8105;DHT22;4095;48.942;9.104;2023-09-19T06:19:56;19.00;99.90
8105;DHT22;4095;48.942;9.104;2023-09-19T06:22:22;19.10;99.90
8105;DHT22;4095;48.942;9.104;2023-09-19T06:24:49;19.10;99.90
8105;DHT22;4095;48.942;9.104;2023-09-19T06:27:15;19.10;99.90
8105;DHT22;4095;48.942;9.104;2023-09-19T06:29:41;19.10;99.90
8105;DHT22;4095;48.942;9.104;2023-09-19T06:32:08;19.20;99.90
8105;DHT22;4095;48.942;9.104;2023-09-19T06:34:37;19.10;99.90
8105;DHT22;4095;48.942;9.104;2023-09-19T06:37:04;19.10;99.90
8105;DHT22;4095;48.942;9.104;2023-09-19T06:39:31;19.10;99.90
8105;DHT22;4095;48.942;9.104;2023-09-19T06:41:57;19.10;99.90
8105;DHT22;4095;48.942;9.104;2023-09-19T06:44:23;19.10;99.90
8105;DHT22;4095;48.942;9.104;2023-09-19T06:46:50;19.10;99.90
8105;DHT22;4095;48.942;9.104;2023-09-19T06:49:17;19.20;99.90
8105;DHT22;4095;48.942;9.104;2023-09-19T06:51:43;19.30;99.90
8105;DHT22;4095;48.942;9.104;2023-09-19T06:54:09;19.40;99.90
8105;DHT22;4095;48.942;9.104;2023-09-19T06:56:35;19.40;99.90
8105;DHT22;4095;48.942;9.104;2023-09-19T06:59:00;19.50;99.90
8105;DHT22;4095;48.942;9.104;2023-09-19T07:01:28;19.60;99.90
8105;DHT22;4095;48.942;9.104;2023-09-19T07:03:53;19.60;99.90
8105;DHT22;4095;48.942;9.104;2023-09-19T07:06:20;19.70;99.90
8105;DHT22;4095;48.942;9.104;2023-09-19T07:08:45;19.70;99.90
8105;DHT22;4095;48.942;9.104;2023-09-19T07:11:11;19.70;99.90
8105;DHT22;4095;48.942;9.104;2023-09-19T07:13:38;19.60;99.90
8105;DHT22;4095;48.942;9.104;2023-09-19T07:16:04;19.60;99.90
8105;DHT22;4095;48.942;9.104;2023-09-19T07:18:29;19.60;99.90
8105;DHT22;4095;48.942;9.104;2023-09-19T07:20:58;19.50;99.90
8105;DHT22;4095;48.942;9.104;2023-09-19T07:23:30;19.50;99.90
8105;DHT22;4095;48.942;9.104;2023-09-19T07:26:00;19.50;99.90
8105;DHT22;4095;48.942;9.104;2023-09-19T07:28:26;19.50;99.90
8105;DHT22;4095;48.942;9.104;2023-09-19T07:30:53;19.70;99.90
8105;DHT22;4095;48.942;9.104;2023-09-19T07:33:19;19.70;99.90
8105;DHT22;4095;48.942;9.104;2023-09-19T07:35:46;19.80;99.90
8105;DHT22;4095;48.942;9.104;2023-09-19T07:38:12;20.00;99.90
8105;DHT22;4095;48.942;9.104;2023-09-19T07:40:37;20.10;99.90
8105;DHT22;4095;48.942;9.104;2023-09-19T07:43:03;20.10;99.90
8105;DHT22;4095;48.942;9.104;2023-09-19T07:45:33;20.10;99.90
8105;DHT22;4095;48.942;9.104;2023-09-19T07:47:59;20.10;99.90
8105;DHT22;4095;48.942;9.104;2023-09-19T07:50:30;20.10;99.90
8105;DHT22;4095;48.942;9.104;2023-09-19T07:52:55;20.00;99.90
8105;DHT22;4095;48.942;9.104;2023-09-19T07:55:22;20.00;99.90
8105;DHT22;4095;48.942;9.104;2023-09-19T07:57:54;20.10;99.90
8105;DHT22;4095;48.942;9.104;2023-09-19T08:00:20;20.00;99.90
8105;DHT22;4095;48.942;9.104;2023-09-19T08:02:45;20.10;99.90
8105;DHT22;4095;48.942;9.104;2023-09-19T08:05:12;20.30;99.90
8105;DHT22;4095;48.942;9.104;2023-09-19T08:07:41;20.50;99.90
8105;DHT22;4095;48.942;9.104;2023-09-19T08:10:08;20.50;99.90
8105;DHT22;4095;48.942;9.104;2023-09-19T08:12:37;20.50;99.90
8105;DHT22;4095;48.942;9.104;2023-09-19T08:15:03;20.60;99.90
8105;DHT22;4095;48.942;9.104;2023-09-19T08:17:34;20.70;99.90
8105;DHT22;4095;48.942;9.104;2023-09-19T08:20:00;20.80;99.90
8105;DHT22;4095;48.942;9.104;2023-09-19T08:22:26;20.80;99.90
8105;DHT22;4095;48.942;9.104;2023-09-19T08:24:52;21.00;99.90
8105;DHT22;4095;48.942;9.104;2023-09-19T08:27:18;21.10;99.90
8105;DHT22;4095;48.942;9.104;2023-09-19T08:29:44;21.10;99.90
8105;DHT22;4095;48.942;9.104;2023-09-19T08:32:10;21.20;99.90
8105;DHT22;4095;48.942;9.104;2023-09-19T08:34:36;21.30;99.90
8105;DHT22;4095;48.942;9.104;2023-09-19T08:37:04;21.50;99.90
8105;DHT22;4095;48.942;9.104;2023-09-19T08:39:30;21.60;99.90
8105;DHT22;4095;48.942;9.104;2023-09-19T08:41:59;21.70;99.90
8105;DHT22;4095;48.942;9.104;2023-09-19T08:44:26;21.70;99.90
8105;DHT22;4095;48.942;9.104;2023-09-19T08:47:07;21.70;99.90
8105;DHT22;4095;48.942;9.104;2023-09-19T08:52:42;21.70;99.90
8105;DHT22;4095;48.942;9.104;2023-09-19T08:55:11;21.80;99.90
8105;DHT22;4095;48.942;9.104;2023-09-19T08:57:38;21.80;99.90
8105;DHT22;4095;48.942;9.104;2023-09-19T09:00:09;21.90;99.90
8105;DHT22;4095;48.942;9.104;2023-09-19T09:02:39;22.00;99.90
8105;DHT22;4095;48.942;9.104;2023-09-19T09:05:08;22.10;99.90
8105;DHT22;4095;48.942;9.104;2023-09-19T09:07:36;22.30;99.90
8105;DHT22;4095;48.942;9.104;2023-09-19T09:10:03;22.60;99.90
8105;DHT22;4095;48.942;9.104;2023-09-19T09:12:29;22.80;99.90
8105;DHT22;4095;48.942;9.104;2023-09-19T09:14:55;22.90;99.90
8105;DHT22;4095;48.942;9.104;2023-09-19T09:17:22;23.10;99.90
8105;DHT22;4095;48.942;9.104;2023-09-19T09:19:47;23.20;99.90
8105;DHT22;4095;48.942;9.104;2023-09-19T09:22:13;23.20;99.90
8105;DHT22;4095;48.942;9.104;2023-09-19T09:24:57;23.20;99.90
8105;DHT22;4095;48.942;9.104;2023-09-19T09:27:24;23.00;99.90
8105;DHT22;4095;48.942;9.104;2023-09-19T09:29:51;22.80;99.90
8105;DHT22;4095;48.942;9.104;2023-09-19T09:34:46;22.70;99.90
8105;DHT22;4095;48.942;9.104;2023-09-19T09:37:15;22.80;99.90
8105;DHT22;4095;48.942;9.104;2023-09-19T09:39:49;22.80;99.90
8105;DHT22;4095;48.942;9.104;2023-09-19T09:42:33;22.80;99.90
8105;DHT22;4095;48.942;9.104;2023-09-19T09:45:20;22.70;99.90
8105;DHT22;4095;48.942;9.104;2023-09-19T09:48:15;22.70;99.90
8105;DHT22;4095;48.942;9.104;2023-09-19T09:50:47;22.80;99.90
8105;DHT22;4095;48.942;9.104;2023-09-19T09:53:28;22.70;99.90
8105;DHT22;4095;48.942;9.104;2023-09-19T09:58:28;22.60;99.90
8105;DHT22;4095;48.942;9.104;2023-09-19T10:00:58;22.70;99.90
8105;DHT22;4095;48.942;9.104;2023-09-19T10:03:36;22.60;99.90
8105;DHT22;4095;48.942;9.104;2023-09-19T10:06:13;22.40;99.90
8105;DHT22;4095;48.942;9.104;2023-09-19T10:09:01;22.20;99.90
8105;DHT22;4095;48.942;9.104;2023-09-19T10:12:00;22.10;99.90
8105;DHT22;4095;48.942;9.104;2023-09-19T10:14:30;22.30;99.90
8105;DHT22;4095;48.942;9.104;2023-09-19T10:16:58;22.70;99.90
8105;DHT22;4095;48.942;9.104;2023-09-19T10:19:29;22.70;99.90
8105;DHT22;4095;48.942;9.104;2023-09-19T10:21:55;22.70;99.90
8105;DHT22;4095;48.942;9.104;2023-09-19T10:24:22;22.60;99.90
8105;DHT22;4095;48.942;9.104;2023-09-19T10:26:50;23.60;99.90
8105;DHT22;4095;48.942;9.104;2023-09-19T10:29:17;24.30;99.90
8105;DHT22;4095;48.942;9.104;2023-09-19T10:31:44;24.40;99.90
8105;DHT22;4095;48.942;9.104;2023-09-19T10:34:17;24.10;99.90
8105;DHT22;4095;48.942;9.104;2023-09-19T10:36:46;23.80;99.90
8105;DHT22;4095;48.942;9.104;2023-09-19T10:39:16;23.60;99.90
8105;DHT22;4095;48.942;9.104;2023-09-19T10:41:51;23.40;99.90
8105;DHT22;4095;48.942;9.104;2023-09-19T10:44:25;23.30;99.90
8105;DHT22;4095;48.942;9.104;2023-09-19T10:46:51;23.30;99.90
8105;DHT22;4095;48.942;9.104;2023-09-19T10:49:19;23.20;99.90
8105;DHT22;4095;48.942;9.104;2023-09-19T10:51:45;23.10;99.90
8105;DHT22;4095;48.942;9.104;2023-09-19T10:54:19;24.70;99.90
8105;DHT22;4095;48.942;9.104;2023-09-19T10:56:48;27.20;99.10
8105;DHT22;4095;48.942;9.104;2023-09-19T10:59:17;29.50;95.90
8105;DHT22;4095;48.942;9.104;2023-09-19T11:01:51;30.50;93.60
8105;DHT22;4095;48.942;9.104;2023-09-19T11:07:09;31.60;91.00
8105;DHT22;4095;48.942;9.104;2023-09-19T11:09:45;30.20;91.00
8105;DHT22;4095;48.942;9.104;2023-09-19T11:15:01;29.40;91.60
8105;DHT22;4095;48.942;9.104;2023-09-19T11:17:39;28.00;91.80
8105;DHT22;4095;48.942;9.104;2023-09-19T11:23:16;26.00;95.30
8105;DHT22;4095;48.942;9.104;2023-09-19T11:25:41;26.90;94.90
8105;DHT22;4095;48.942;9.104;2023-09-19T11:30:47;31.80;90.80
8105;DHT22;4095;48.942;9.104;2023-09-19T11:36:10;34.50;85.20
8105;DHT22;4095;48.942;9.104;2023-09-19T11:46:21;36.20;76.70
8105;DHT22;4095;48.942;9.104;2023-09-19T11:48:50;36.40;76.80
8105;DHT22;4095;48.942;9.104;2023-09-19T11:51:21;36.50;76.60
8105;DHT22;4095;48.942;9.104;2023-09-19T11:53:50;36.40;75.40
8105;DHT22;4095;48.942;9.104;2023-09-19T11:56:19;36.70;74.50
8105;DHT22;4095;48.942;9.104;2023-09-19T11:58:46;37.30;72.50
8105;DHT22;4095;48.942;9.104;2023-09-19T12:01:20;38.00;73.00
8105;DHT22;4095;48.942;9.104;2023-09-19T12:03:47;38.20;70.90
8105;DHT22;4095;48.942;9.104;2023-09-19T12:06:18;38.40;67.00
8105;DHT22;4095;48.942;9.104;2023-09-19T12:08:44;38.80;67.30
8105;DHT22;4095;48.942;9.104;2023-09-19T12:11:16;39.00;65.80
8105;DHT22;4095;48.942;9.104;2023-09-19T12:13:46;39.10;63.90
8105;DHT22;4095;48.942;9.104;2023-09-19T12:16:14;39.00;64.30
8105;DHT22;4095;48.942;9.104;2023-09-19T12:18:40;39.40;64.90
8105;DHT22;4095;48.942;9.104;2023-09-19T12:21:24;39.50;64.30
8105;DHT22;4095;48.942;9.104;2023-09-19T12:26:43;36.30;65.30
8105;DHT22;4095;48.942;9.104;2023-09-19T12:29:13;37.30;65.60
8105;DHT22;4095;48.942;9.104;2023-09-19T12:34:27;38.70;63.00
8105;DHT22;4095;48.942;9.104;2023-09-19T12:37:08;38.40;64.00
8105;DHT22;4095;48.942;9.104;2023-09-19T12:40:07;36.80;63.00
8105;DHT22;4095;48.942;9.104;2023-09-19T12:42:43;34.30;66.20
8105;DHT22;4095;48.942;9.104;2023-09-19T12:45:11;32.30;68.70
8105;DHT22;4095;48.942;9.104;2023-09-19T12:47:41;31.10;71.80
8105;DHT22;4095;48.942;9.104;2023-09-19T12:50:26;30.60;74.30
8105;DHT22;4095;48.942;9.104;2023-09-19T12:52:55;30.10;75.00
8105;DHT22;4095;48.942;9.104;2023-09-19T12:55:29;29.90;76.50
8105;DHT22;4095;48.942;9.104;2023-09-19T12:58:13;30.00;77.40
8105;DHT22;4095;48.942;9.104;2023-09-19T13:00:42;30.80;77.40
8105;DHT22;4095;48.942;9.104;2023-09-19T13:03:12;30.80;76.30
8105;DHT22;4095;48.942;9.104;2023-09-19T13:06:02;30.30;76.40
8105;DHT22;4095;48.942;9.104;2023-09-19T13:08:39;29.50;76.40
8105;DHT22;4095;48.942;9.104;2023-09-19T13:11:12;28.90;80.70
8105;DHT22;4095;48.942;9.104;2023-09-19T13:13:44;28.40;82.30
8105;DHT22;4095;48.942;9.104;2023-09-19T13:16:10;27.80;84.10
8105;DHT22;4095;48.942;9.104;2023-09-19T13:18:43;27.40;84.20
8105;DHT22;4095;48.942;9.104;2023-09-19T13:21:14;27.10;86.00
8105;DHT22;4095;48.942;9.104;2023-09-19T13:23:55;26.90;85.10
8105;DHT22;4095;48.942;9.104;2023-09-19T13:26:27;26.70;87.60
8105;DHT22;4095;48.942;9.104;2023-09-19T13:28:56;26.50;88.90
8105;DHT22;4095;48.942;9.104;2023-09-19T13:31:21;26.40;89.90
8105;DHT22;4095;48.942;9.104;2023-09-19T13:33:49;26.20;89.30
8105;DHT22;4095;48.942;9.104;2023-09-19T13:36:15;26.00;89.00
8105;DHT22;4095;48.942;9.104;2023-09-19T13:38:41;25.80;90.70
8105;DHT22;4095;48.942;9.104;2023-09-19T13:41:10;25.70;89.40
8105;DHT22;4095;48.942;9.104;2023-09-19T13:43:37;25.60;90.70
8105;DHT22;4095;48.942;9.104;2023-09-19T13:46:02;25.60;90.70
8105;DHT22;4095;48.942;9.104;2023-09-19T13:48:28;25.50;90.60
8105;DHT22;4095;48.942;9.104;2023-09-19T13:50:55;25.50;91.40
8105;DHT22;4095;48.942;9.104;2023-09-19T13:53:21;25.50;90.90
8105;DHT22;4095;48.942;9.104;2023-09-19T13:55:47;25.60;91.50
8105;DHT22;4095;48.942;9.104;2023-09-19T13:58:14;25.60;91.00
8105;DHT22;4095;48.942;9.104;2023-09-19T14:00:40;25.60;91.80
8105;DHT22;4095;48.942;9.104;2023-09-19T14:03:05;25.60;91.30
8105;DHT22;4095;48.942;9.104;2023-09-19T14:05:31;25.60;91.60
8105;DHT22;4095;48.942;9.104;2023-09-19T14:07:58;25.50;91.40
8105;DHT22;4095;48.942;9.104;2023-09-19T14:10:24;25.40;91.10
8105;DHT22;4095;48.942;9.104;2023-09-19T14:12:51;25.40;91.00
8105;DHT22;4095;48.942;9.104;2023-09-19T14:15:17;25.40;91.20
8105;DHT22;4095;48.942;9.104;2023-09-19T14:17:42;25.30;92.00
8105;DHT22;4095;48.942;9.104;2023-09-19T14:20:10;25.30;91.90
8105;DHT22;4095;48.942;9.104;2023-09-19T14:22:36;25.20;91.10
8105;DHT22;4095;48.942;9.104;2023-09-19T14:25:05;25.20;91.60
8105;DHT22;4095;48.942;9.104;2023-09-19T14:27:31;25.20;91.30
8105;DHT22;4095;48.942;9.104;2023-09-19T14:29:57;25.10;91.90
8105;DHT22;4095;48.942;9.104;2023-09-19T14:32:23;25.10;92.10
8105;DHT22;4095;48.942;9.104;2023-09-19T14:34:48;25.10;91.20
8105;DHT22;4095;48.942;9.104;2023-09-19T14:37:14;25.00;91.80
8105;DHT22;4095;48.942;9.104;2023-09-19T14:39:41;25.00;94.10
8105;DHT22;4095;48.942;9.104;2023-09-19T14:42:10;25.10;92.60
8105;DHT22;4095;48.942;9.104;2023-09-19T14:44:36;25.00;92.60
8105;DHT22;4095;48.942;9.104;2023-09-19T14:47:03;25.10;91.90
8105;DHT22;4095;48.942;9.104;2023-09-19T14:49:30;25.20;91.10
8105;DHT22;4095;48.942;9.104;2023-09-19T14:51:55;25.20;91.70
8105;DHT22;4095;48.942;9.104;2023-09-19T14:54:21;25.10;92.00
8105;DHT22;4095;48.942;9.104;2023-09-19T14:56:47;25.10;91.60
8105;DHT22;4095;48.942;9.104;2023-09-19T14:59:19;25.10;91.70
8105;DHT22;4095;48.942;9.104;2023-09-19T15:01:45;25.10;91.80
8105;DHT22;4095;48.942;9.104;2023-09-19T15:04:11;25.10;91.60
8105;DHT22;4095;48.942;9.104;2023-09-19T15:06:36;25.00;91.20
8105;DHT22;4095;48.942;9.104;2023-09-19T15:09:02;25.00;91.80
8105;DHT22;4095;48.942;9.104;2023-09-19T15:11:30;25.00;91.60
8105;DHT22;4095;48.942;9.104;2023-09-19T15:13:56;25.00;91.90
8105;DHT22;4095;48.942;9.104;2023-09-19T15:16:22;25.00;91.10
8105;DHT22;4095;48.942;9.104;2023-09-19T15:18:48;25.00;92.50
8105;DHT22;4095;48.942;9.104;2023-09-19T15:21:14;25.00;91.40
8105;DHT22;4095;48.942;9.104;2023-09-19T15:23:41;25.00;91.50
8105;DHT22;4095;48.942;9.104;2023-09-19T15:26:10;24.90;91.40
8105;DHT22;4095;48.942;9.104;2023-09-19T15:28:36;24.80;91.30
8105;DHT22;4095;48.942;9.104;2023-09-19T15:33:30;24.80;91.30
8105;DHT22;4095;48.942;9.104;2023-09-19T15:36:15;24.70;91.20
8105;DHT22;4095;48.942;9.104;2023-09-19T15:41:32;24.60;91.60
8105;DHT22;4095;48.942;9.104;2023-09-19T15:43:59;24.50;91.40
8105;DHT22;4095;48.942;9.104;2023-09-19T15:46:27;24.50;91.40
8105;DHT22;4095;48.942;9.104;2023-09-19T15:48:53;24.40;92.60
8105;DHT22;4095;48.942;9.104;2023-09-19T15:51:19;24.40;91.90
8105;DHT22;4095;48.942;9.104;2023-09-19T15:53:49;24.40;92.90
8105;DHT22;4095;48.942;9.104;2023-09-19T15:56:20;24.30;93.30
8105;DHT22;4095;48.942;9.104;2023-09-19T15:58:50;24.30;93.80
8105;DHT22;4095;48.942;9.104;2023-09-19T16:01:16;24.30;92.30
8105;DHT22;4095;48.942;9.104;2023-09-19T16:03:47;24.20;93.40
8105;DHT22;4095;48.942;9.104;2023-09-19T16:06:17;24.20;94.00
8105;DHT22;4095;48.942;9.104;2023-09-19T16:08:45;24.10;92.80
8105;DHT22;4095;48.942;9.104;2023-09-19T16:11:12;24.10;93.60
8105;DHT22;4095;48.942;9.104;2023-09-19T16:13:39;24.10;92.90
8105;DHT22;4095;48.942;9.104;2023-09-19T16:16:07;24.10;94.40
8105;DHT22;4095;48.942;9.104;2023-09-19T16:18:33;24.10;96.40
8105;DHT22;4095;48.942;9.104;2023-09-19T16:21:03;24.10;96.30
8105;DHT22;4095;48.942;9.104;2023-09-19T16:23:29;24.00;96.90
8105;DHT22;4095;48.942;9.104;2023-09-19T16:26:06;24.00;97.20
8105;DHT22;4095;48.942;9.104;2023-09-19T16:28:32;23.90;96.80
8105;DHT22;4095;48.942;9.104;2023-09-19T16:31:02;23.90;98.00
8105;DHT22;4095;48.942;9.104;2023-09-19T16:33:31;23.80;97.70
8105;DHT22;4095;48.942;9.104;2023-09-19T16:35:57;23.80;96.70
8105;DHT22;4095;48.942;9.104;2023-09-19T16:38:25;23.70;97.50
8105;DHT22;4095;48.942;9.104;2023-09-19T16:40:52;23.70;97.50
8105;DHT22;4095;48.942;9.104;2023-09-19T16:43:18;23.70;98.50
8105;DHT22;4095;48.942;9.104;2023-09-19T16:45:52;23.60;98.80
8105;DHT22;4095;48.942;9.104;2023-09-19T16:48:18;23.60;98.90
8105;DHT22;4095;48.942;9.104;2023-09-19T16:50:44;23.50;99.40
8105;DHT22;4095;48.942;9.104;2023-09-19T16:53:09;23.40;99.00
8105;DHT22;4095;48.942;9.104;2023-09-19T16:55:35;23.40;99.60
8105;DHT22;4095;48.942;9.104;2023-09-19T16:58:00;23.30;99.40
8105;DHT22;4095;48.942;9.104;2023-09-19T17:00:26;23.20;99.90
8105;DHT22;4095;48.942;9.104;2023-09-19T17:02:51;23.20;99.90
8105;DHT22;4095;48.942;9.104;2023-09-19T17:05:17;23.10;99.90
8105;DHT22;4095;48.942;9.104;2023-09-19T17:07:44;23.10;99.90